createdAt,value
2023-05-15T00:00:58.628Z,6.90
2023-05-15T00:03:26.058Z,7.17
2023-05-15T00:05:53.662Z,6.80
2023-05-15T00:08:20.898Z,6.80
2023-05-15T00:11:00.128Z,7.10
2023-05-15T00:13:28.600Z,7.67
2023-05-15T00:15:56.097Z,7.17
2023-05-15T00:18:23.324Z,7.00
2023-05-15T00:20:51.131Z,7.23
2023-05-15T00:23:18.597Z,6.93
2023-05-15T00:25:45.829Z,7.40
2023-05-15T00:28:13.398Z,7.60
2023-05-15T00:30:40.605Z,7.10
2023-05-15T00:33:08.034Z,6.77
2023-05-15T00:35:37.164Z,6.60
2023-05-15T00:38:04.695Z,6.80
2023-05-15T00:40:32.875Z,6.63
2023-05-15T00:43:01.772Z,6.40
2023-05-15T00:45:30.287Z,6.50
2023-05-15T00:47:59.213Z,6.37
2023-05-15T00:50:32.210Z,7.30
2023-05-15T00:53:01.579Z,6.30
2023-05-15T00:55:29.365Z,6.83
2023-05-15T00:57:59.723Z,6.70
2023-05-15T01:00:28.406Z,6.60
2023-05-15T01:02:56.000Z,7.07
2023-05-15T01:05:23.812Z,7.67
2023-05-15T01:08:06.742Z,7.33
2023-05-15T01:10:35.840Z,7.43
2023-05-15T01:13:05.946Z,7.70
2023-05-15T01:15:34.296Z,7.70
2023-05-15T01:18:01.893Z,7.17
2023-05-15T01:20:33.762Z,8.00
2023-05-15T01:23:16.070Z,7.43
2023-05-15T01:26:09.912Z,8.67
2023-05-15T01:28:42.300Z,8.43
2023-05-15T01:31:16.862Z,8.47
2023-05-15T01:33:47.662Z,8.27
2023-05-15T01:36:21.574Z,8.53
2023-05-15T01:38:53.555Z,8.23
2023-05-15T01:41:41.743Z,9.77
2023-05-15T01:44:17.084Z,12.73
2023-05-15T01:46:46.830Z,11.40
2023-05-15T01:49:18.659Z,11.33
2023-05-15T01:51:51.103Z,10.93
2023-05-15T01:54:20.894Z,11.10
2023-05-15T01:56:48.738Z,11.73
2023-05-15T01:59:17.770Z,11.87
2023-05-15T02:01:46.007Z,11.20
2023-05-15T02:04:14.395Z,11.90
2023-05-15T02:06:41.861Z,11.80
2023-05-15T02:09:10.248Z,12.23
2023-05-15T02:11:37.736Z,11.93
2023-05-15T02:14:05.477Z,12.00
2023-05-15T02:16:32.707Z,11.93
2023-05-15T02:19:00.271Z,11.30
2023-05-15T02:21:27.601Z,12.43
2023-05-15T02:23:55.149Z,11.53
2023-05-15T02:26:53.323Z,12.30
2023-05-15T02:29:29.235Z,12.47
2023-05-15T02:32:09.805Z,12.67
2023-05-15T02:34:58.793Z,13.43
2023-05-15T02:37:31.085Z,13.60
2023-05-15T02:40:00.282Z,13.93
2023-05-15T02:42:29.635Z,14.90
2023-05-15T02:44:57.957Z,14.50
2023-05-15T02:47:26.550Z,15.03
2023-05-15T02:49:55.373Z,14.53
2023-05-15T02:52:25.853Z,14.70
2023-05-15T02:54:53.304Z,14.47
2023-05-15T02:57:20.874Z,13.77
2023-05-15T02:59:48.572Z,14.10
2023-05-15T03:02:15.974Z,13.70
2023-05-15T03:04:43.749Z,13.67
2023-05-15T03:07:11.538Z,13.50
2023-05-15T03:09:38.732Z,12.67
2023-05-15T03:12:06.557Z,13.40
2023-05-15T03:14:33.945Z,12.23
2023-05-15T03:17:01.529Z,13.10
2023-05-15T03:19:28.797Z,13.63
2023-05-15T03:21:56.205Z,12.93
2023-05-15T03:24:23.634Z,12.50
2023-05-15T03:26:50.907Z,12.47
2023-05-15T03:29:18.212Z,12.20
2023-05-15T03:31:45.738Z,13.63
2023-05-15T03:34:13.133Z,12.93
2023-05-15T03:36:40.306Z,11.97
2023-05-15T03:39:07.854Z,12.97
2023-05-15T03:41:35.250Z,13.37
2023-05-15T03:44:02.818Z,11.13
2023-05-15T03:46:30.086Z,10.83
2023-05-15T03:48:57.397Z,11.77
2023-05-15T03:51:24.982Z,10.87
2023-05-15T03:53:54.805Z,10.60
2023-05-15T03:56:23.571Z,11.20
2023-05-15T03:58:50.744Z,11.73
2023-05-15T04:01:18.334Z,10.80
2023-05-15T04:03:45.908Z,11.97
2023-05-15T04:06:13.031Z,10.80
2023-05-15T04:08:41.501Z,11.23
2023-05-15T04:11:10.488Z,11.83
2023-05-15T04:13:37.948Z,10.90
2023-05-15T04:16:05.543Z,12.00
2023-05-15T04:18:33.075Z,12.50
2023-05-15T04:21:00.552Z,12.47
2023-05-15T04:23:27.803Z,13.63
2023-05-15T04:25:55.068Z,12.67
2023-05-15T04:28:22.610Z,13.37
2023-05-15T04:30:49.782Z,13.37
2023-05-15T04:33:17.091Z,13.83
2023-05-15T04:35:44.316Z,14.20
2023-05-15T04:38:11.776Z,14.30
2023-05-15T04:40:39.229Z,13.90
2023-05-15T04:43:06.524Z,14.80
2023-05-15T04:45:34.034Z,13.50
2023-05-15T04:48:01.423Z,13.20
2023-05-15T04:50:28.801Z,13.40
2023-05-15T04:52:56.215Z,13.83
2023-05-15T04:55:23.850Z,14.03
2023-05-15T04:57:51.653Z,13.33
2023-05-15T05:00:18.907Z,12.67
2023-05-15T05:02:46.368Z,13.80
2023-05-15T05:05:14.721Z,13.87
2023-05-15T05:07:43.660Z,13.47
2023-05-15T05:10:11.485Z,14.13
2023-05-15T05:12:38.699Z,13.23
2023-05-15T05:15:06.422Z,14.27
2023-05-15T05:17:33.850Z,14.07
2023-05-15T05:20:01.126Z,14.90
2023-05-15T05:22:28.365Z,15.13
2023-05-15T05:24:56.452Z,15.50
2023-05-15T05:27:23.630Z,14.30
2023-05-15T05:29:52.482Z,15.37
2023-05-15T05:32:19.962Z,14.27
2023-05-15T05:34:47.571Z,14.83
2023-05-15T05:37:15.127Z,14.77
2023-05-15T05:39:42.340Z,14.43
2023-05-15T05:42:09.534Z,13.90
2023-05-15T05:44:36.977Z,14.27
2023-05-15T05:47:04.408Z,12.93
2023-05-15T05:49:31.925Z,13.13
2023-05-15T05:52:05.954Z,15.50
2023-05-15T05:54:33.148Z,13.77
2023-05-15T05:57:00.849Z,13.90
2023-05-15T05:59:29.130Z,14.90
2023-05-15T06:01:57.005Z,13.70
2023-05-15T06:04:24.337Z,14.80
2023-05-15T06:06:51.917Z,13.37
2023-05-15T06:09:19.075Z,13.43
2023-05-15T06:11:46.422Z,14.00
2023-05-15T06:14:13.608Z,12.93
2023-05-15T06:16:41.033Z,13.60
2023-05-15T06:19:08.242Z,13.37
2023-05-15T06:21:35.676Z,13.80
2023-05-15T06:24:03.090Z,13.40
2023-05-15T06:26:30.932Z,12.60
2023-05-15T06:28:58.232Z,13.30
2023-05-15T06:31:25.732Z,13.50
2023-05-15T06:33:53.457Z,13.13
2023-05-15T06:36:21.665Z,12.10
2023-05-15T06:38:48.884Z,12.93
2023-05-15T06:41:16.148Z,12.77
2023-05-15T06:43:43.567Z,11.73
2023-05-15T06:46:11.154Z,12.43
2023-05-15T06:48:38.638Z,11.77
2023-05-15T06:51:05.899Z,11.10
2023-05-15T06:53:33.189Z,11.03
2023-05-15T06:56:00.697Z,10.87
2023-05-15T06:58:28.143Z,11.67
2023-05-15T07:00:56.469Z,10.57
2023-05-15T07:03:24.156Z,10.90
2023-05-15T07:05:52.378Z,11.83
2023-05-15T07:08:19.738Z,10.70
2023-05-15T07:10:48.149Z,10.87
2023-05-15T07:13:18.858Z,10.83
2023-05-15T07:15:46.051Z,9.90
2023-05-15T07:18:13.533Z,10.13
2023-05-15T07:20:40.867Z,9.80
2023-05-15T07:23:08.324Z,9.87
2023-05-15T07:25:35.570Z,10.17
2023-05-15T07:28:02.805Z,9.53
2023-05-15T07:30:30.060Z,10.23
2023-05-15T07:32:57.473Z,8.30
2023-05-15T07:35:25.898Z,8.73
2023-05-15T07:37:53.374Z,8.87
2023-05-15T07:40:20.690Z,8.63
2023-05-15T07:42:48.147Z,8.20
2023-05-15T07:45:15.891Z,9.00
2023-05-15T07:47:47.344Z,7.60
2023-05-15T07:50:14.891Z,7.67
2023-05-15T07:52:43.276Z,7.63
2023-05-15T07:55:11.384Z,7.80
2023-05-15T07:57:39.901Z,7.17
2023-05-15T08:00:13.207Z,6.53
2023-05-15T08:02:41.832Z,6.13
2023-05-15T08:05:09.573Z,6.23
2023-05-15T08:07:36.933Z,6.40
2023-05-15T08:10:06.169Z,6.03
2023-05-15T08:12:33.875Z,5.80
2023-05-15T08:15:01.549Z,5.20
2023-05-15T08:17:29.102Z,6.23
2023-05-15T08:19:56.753Z,5.40
2023-05-15T08:22:24.153Z,5.57
2023-05-15T08:24:51.319Z,5.57
2023-05-15T08:27:18.697Z,5.23
2023-05-15T08:29:45.919Z,6.50
2023-05-15T08:32:13.559Z,6.87
2023-05-15T08:34:40.779Z,6.07
2023-05-15T08:37:08.205Z,5.53
2023-05-15T08:39:35.435Z,5.63
2023-05-15T08:42:24.263Z,6.37
2023-05-15T08:44:51.790Z,5.13
2023-05-15T08:47:20.492Z,5.43
2023-05-15T08:50:06.744Z,5.53
2023-05-15T08:52:34.542Z,5.17
2023-05-15T08:55:02.719Z,5.57
2023-05-15T08:57:30.369Z,5.80
2023-05-15T08:59:58.685Z,5.27
2023-05-15T09:02:26.370Z,6.83
2023-05-15T09:04:53.616Z,8.43
2023-05-15T09:07:21.492Z,7.23
2023-05-15T09:09:49.737Z,7.40
2023-05-15T09:12:18.070Z,7.90
2023-05-15T09:14:45.573Z,6.90
2023-05-15T09:17:13.021Z,6.73
2023-05-15T09:19:41.542Z,7.33
2023-05-15T09:22:23.393Z,6.67
2023-05-15T09:24:53.400Z,6.60
2023-05-15T09:27:20.938Z,6.23
2023-05-15T09:29:51.245Z,5.80
2023-05-15T09:32:18.780Z,6.60
2023-05-15T09:34:46.591Z,6.20
2023-05-15T09:37:34.523Z,6.67
2023-05-15T09:40:10.088Z,6.47
2023-05-15T09:42:37.755Z,6.43
2023-05-15T09:45:06.740Z,7.17
2023-05-15T09:47:34.611Z,7.63
2023-05-15T09:50:02.328Z,6.90
2023-05-15T09:52:30.117Z,6.60
2023-05-15T09:54:57.942Z,6.73
2023-05-15T09:57:25.417Z,6.63
2023-05-15T09:59:52.826Z,6.93
2023-05-15T10:02:32.294Z,7.23
2023-05-15T10:05:00.451Z,8.60
2023-05-15T10:07:32.939Z,6.23
2023-05-15T10:10:02.380Z,6.90
2023-05-15T10:12:32.378Z,6.30
2023-05-15T10:15:01.225Z,6.10
2023-05-15T10:17:31.796Z,6.40
2023-05-15T10:20:02.717Z,6.53
2023-05-15T10:22:32.329Z,5.80
2023-05-15T10:25:28.803Z,6.33
2023-05-15T10:27:56.848Z,6.10
2023-05-15T10:30:26.097Z,5.10
2023-05-15T10:32:55.490Z,6.10
2023-05-15T10:35:23.587Z,5.40
2023-05-15T10:37:50.867Z,6.37
2023-05-15T10:40:18.299Z,5.60
2023-05-15T10:42:47.718Z,5.87
2023-05-15T10:45:15.412Z,5.83
2023-05-15T10:47:43.881Z,6.77
2023-05-15T10:50:13.357Z,6.17
2023-05-15T10:52:41.720Z,6.17
2023-05-15T10:55:13.938Z,5.57
2023-05-15T10:57:41.610Z,6.20
2023-05-15T11:00:29.588Z,5.83
2023-05-15T11:02:58.572Z,7.20
2023-05-15T11:05:26.843Z,5.87
2023-05-15T11:08:25.964Z,5.90
2023-05-15T11:10:56.414Z,7.20
2023-05-15T11:13:23.893Z,6.10
2023-05-15T11:15:51.491Z,6.83
2023-05-15T11:18:20.244Z,5.57
2023-05-15T11:20:51.876Z,6.10
2023-05-15T11:23:23.317Z,6.23
2023-05-15T11:25:57.028Z,7.43
2023-05-15T11:28:29.352Z,6.53
2023-05-15T11:31:07.877Z,11.43
2023-05-15T11:33:38.117Z,20.67
2023-05-15T11:36:06.994Z,10.50
2023-05-15T11:38:39.949Z,9.73
2023-05-15T11:41:22.084Z,9.67
2023-05-15T11:43:50.525Z,9.53
2023-05-15T11:46:18.075Z,10.07
2023-05-15T11:48:49.648Z,8.77
2023-05-15T11:51:22.250Z,8.70
2023-05-15T11:53:51.415Z,9.03
2023-05-15T11:56:20.890Z,9.17
2023-05-15T11:58:55.593Z,8.97
2023-05-15T12:01:23.464Z,9.77
2023-05-15T12:03:54.921Z,11.27
2023-05-15T12:06:23.087Z,9.87
2023-05-15T12:08:53.885Z,8.60
2023-05-15T12:11:23.745Z,8.73
2023-05-15T12:13:55.262Z,9.53
2023-05-15T12:16:27.407Z,10.23
2023-05-15T12:18:57.284Z,8.27
2023-05-15T12:21:26.955Z,7.73
2023-05-15T12:24:06.871Z,7.73
2023-05-15T12:26:35.975Z,9.47
2023-05-15T12:29:05.333Z,13.57
2023-05-15T12:31:35.528Z,9.43
2023-05-15T12:34:03.201Z,9.27
2023-05-15T12:36:31.014Z,8.93
2023-05-15T12:38:58.771Z,8.23
2023-05-15T12:41:29.206Z,6.87
2023-05-15T12:43:56.517Z,8.23
2023-05-15T12:46:25.688Z,7.67
2023-05-15T12:48:53.789Z,6.87
2023-05-15T12:51:22.904Z,8.77
2023-05-15T12:53:57.617Z,5.50
2023-05-15T12:56:25.192Z,5.07
2023-05-15T12:58:54.556Z,7.60
2023-05-15T13:01:22.171Z,6.57
2023-05-15T13:03:50.246Z,6.10
2023-05-15T13:06:23.580Z,6.63
2023-05-15T13:08:51.538Z,4.90
2023-05-15T13:11:19.569Z,5.40
2023-05-15T13:13:48.773Z,6.77
2023-05-15T13:16:26.715Z,5.40
2023-05-15T13:18:54.127Z,5.70
2023-05-15T13:21:21.456Z,5.87
2023-05-15T13:23:48.841Z,6.53
2023-05-15T13:26:16.275Z,5.20
2023-05-15T13:28:43.636Z,5.60
2023-05-15T13:31:11.005Z,6.33
2023-05-15T13:33:38.551Z,5.90
2023-05-15T13:36:06.508Z,6.77
2023-05-15T13:38:33.943Z,6.57
2023-05-15T13:41:01.241Z,5.27
2023-05-15T13:43:28.679Z,5.50
2023-05-15T13:45:56.455Z,5.73
2023-05-15T13:48:23.983Z,7.40
2023-05-15T13:50:51.231Z,5.83
2023-05-15T13:53:18.900Z,5.40
2023-05-15T13:55:47.197Z,5.40
2023-05-15T13:58:15.333Z,5.20
2023-05-15T14:00:43.817Z,5.63
2023-05-15T14:03:13.438Z,5.37
2023-05-15T14:05:42.435Z,6.23
2023-05-15T14:08:09.780Z,5.50
2023-05-15T14:10:37.449Z,5.17
2023-05-15T14:13:04.886Z,4.90
2023-05-15T14:15:32.170Z,5.30
2023-05-15T14:17:59.493Z,5.33
2023-05-15T14:20:28.012Z,4.80
2023-05-15T14:22:58.487Z,5.20
2023-05-15T14:25:26.139Z,4.70
2023-05-15T14:27:53.675Z,3.93
2023-05-15T14:30:23.560Z,3.83
2023-05-15T14:32:54.499Z,4.60
2023-05-15T14:35:22.776Z,3.90
2023-05-15T14:37:50.205Z,4.30
2023-05-15T14:40:17.768Z,4.10
2023-05-15T14:42:44.993Z,4.77
2023-05-15T14:45:12.399Z,3.53
2023-05-15T14:47:39.691Z,3.57
2023-05-15T14:50:07.676Z,3.60
2023-05-15T14:52:34.984Z,3.27
2023-05-15T14:55:09.279Z,3.40
2023-05-15T14:57:38.180Z,3.17
2023-05-15T15:00:06.735Z,3.50
2023-05-15T15:02:34.285Z,3.87
2023-05-15T15:05:18.261Z,4.80
2023-05-15T15:08:06.872Z,3.90
2023-05-15T15:10:36.540Z,3.60
2023-05-15T15:13:04.688Z,5.53
2023-05-15T15:15:33.387Z,3.97
2023-05-15T15:18:05.723Z,4.03
2023-05-15T15:20:33.422Z,3.90
2023-05-15T15:23:00.849Z,5.00
2023-05-15T15:25:29.272Z,3.97
2023-05-15T15:27:58.215Z,4.33
2023-05-15T15:30:26.190Z,5.07
2023-05-15T15:32:54.745Z,5.23
2023-05-15T15:35:22.141Z,4.53
2023-05-15T15:37:49.614Z,5.80
2023-05-15T15:40:16.857Z,3.73
2023-05-15T15:42:44.265Z,3.83
2023-05-15T15:45:11.673Z,3.80
2023-05-15T15:47:39.215Z,4.97
2023-05-15T15:50:06.993Z,4.50
2023-05-15T15:52:34.431Z,5.53
2023-05-15T15:55:01.813Z,4.13
2023-05-15T15:57:29.852Z,4.27
2023-05-15T15:59:57.180Z,5.03
2023-05-15T16:02:24.640Z,5.57
2023-05-15T16:04:52.102Z,4.00
2023-05-15T16:07:19.673Z,3.60
2023-05-15T16:09:51.392Z,3.40
2023-05-15T16:12:28.111Z,4.47
2023-05-15T16:14:55.363Z,3.20
2023-05-15T16:17:22.656Z,3.00
2023-05-15T16:19:50.175Z,3.37
2023-05-15T16:22:17.739Z,3.00
2023-05-15T16:24:45.128Z,3.70
2023-05-15T16:27:12.550Z,3.70
2023-05-15T16:29:39.974Z,3.17
2023-05-15T16:32:07.996Z,3.30
2023-05-15T16:34:35.786Z,2.87
2023-05-15T16:37:04.858Z,2.77
2023-05-15T16:39:39.653Z,4.80
2023-05-15T16:42:09.307Z,2.93
2023-05-15T16:44:37.260Z,2.83
2023-05-15T16:47:04.793Z,2.87
2023-05-15T16:49:32.033Z,2.80
2023-05-15T16:51:59.433Z,2.53
2023-05-15T16:54:26.651Z,2.70
2023-05-15T16:56:54.129Z,2.43
2023-05-15T16:59:21.419Z,3.80
2023-05-15T17:01:48.725Z,3.27
2023-05-15T17:04:16.018Z,3.07
2023-05-15T17:06:43.246Z,3.83
2023-05-15T17:09:10.541Z,5.17
2023-05-15T17:11:37.778Z,4.30
2023-05-15T17:14:05.004Z,3.40
2023-05-15T17:16:32.283Z,4.20
2023-05-15T17:18:59.874Z,3.40
2023-05-15T17:21:27.151Z,3.90
2023-05-15T17:23:54.353Z,3.97
2023-05-15T17:26:24.249Z,3.30
2023-05-15T17:28:51.474Z,3.60
2023-05-15T17:31:20.999Z,3.83
2023-05-15T17:33:48.320Z,3.50
2023-05-15T17:36:16.718Z,3.70
2023-05-15T17:38:47.674Z,4.17
2023-05-15T17:41:14.968Z,3.80
2023-05-15T17:43:42.213Z,4.13
2023-05-15T17:46:09.811Z,4.13
2023-05-15T17:48:37.344Z,3.60
2023-05-15T17:51:04.530Z,3.73
2023-05-15T17:53:31.864Z,4.13
2023-05-15T17:55:59.296Z,4.00
2023-05-15T17:58:27.064Z,4.70
2023-05-15T18:00:54.445Z,5.87
2023-05-15T18:03:22.305Z,4.60
2023-05-15T18:05:49.817Z,3.97
2023-05-15T18:08:17.041Z,4.20
2023-05-15T18:10:44.240Z,4.10
2023-05-15T18:13:11.416Z,4.40
2023-05-15T18:15:39.112Z,4.27
2023-05-15T18:18:06.457Z,4.07
2023-05-15T18:20:38.057Z,4.30
2023-05-15T18:23:06.045Z,4.80
2023-05-15T18:25:39.675Z,4.73
2023-05-15T18:28:07.222Z,5.30
2023-05-15T18:31:48.106Z,5.43
2023-05-15T18:34:25.219Z,5.40
2023-05-15T18:36:58.667Z,6.17
2023-05-15T18:40:25.613Z,6.00
2023-05-15T18:43:08.611Z,5.67
2023-05-15T18:45:59.171Z,5.63
2023-05-15T18:51:25.551Z,5.87
2023-05-15T18:53:55.699Z,6.20
2023-05-15T18:56:23.454Z,8.83
2023-05-15T18:58:51.036Z,8.77
2023-05-15T19:01:18.401Z,16.40
2023-05-15T19:03:45.975Z,6.57
2023-05-15T19:06:19.783Z,5.77
2023-05-15T19:08:48.412Z,6.13
2023-05-15T19:11:16.651Z,6.03
2023-05-15T19:13:44.049Z,7.20
2023-05-15T19:16:12.509Z,5.97
2023-05-15T19:18:40.282Z,6.33
2023-05-15T19:21:07.521Z,6.43
2023-05-15T19:23:37.392Z,6.07
2023-05-15T19:26:04.601Z,6.83
2023-05-15T19:28:31.764Z,6.73
2023-05-15T19:30:59.167Z,6.03
2023-05-15T19:33:26.529Z,7.10
2023-05-15T19:35:53.944Z,6.33
2023-05-15T19:38:22.068Z,6.27
2023-05-15T19:40:49.220Z,6.57
2023-05-15T19:43:16.426Z,5.73
2023-05-15T19:45:43.812Z,7.20
2023-05-15T19:48:11.129Z,6.00
2023-05-15T19:50:39.652Z,6.97
2023-05-15T19:53:07.157Z,6.93
2023-05-15T19:55:34.402Z,6.93
2023-05-15T19:58:01.840Z,6.70
2023-05-15T20:00:29.092Z,6.37
2023-05-15T20:02:56.904Z,6.97
2023-05-15T20:05:24.363Z,7.40
2023-05-15T20:07:53.018Z,7.77
2023-05-15T20:10:21.009Z,6.97
2023-05-15T20:12:50.976Z,7.83
2023-05-15T20:15:18.215Z,7.00
2023-05-15T20:17:45.797Z,7.40
2023-05-15T20:20:15.398Z,8.20
2023-05-15T20:22:43.957Z,7.97
2023-05-15T20:25:11.322Z,6.97
2023-05-15T20:27:38.819Z,6.87
2023-05-15T20:30:10.190Z,7.30
2023-05-15T20:32:37.510Z,8.10
2023-05-15T20:35:05.414Z,7.70
2023-05-15T20:37:33.361Z,7.77
2023-05-15T20:40:00.759Z,6.73
2023-05-15T20:42:28.642Z,6.57
2023-05-15T20:44:55.841Z,8.03
2023-05-15T20:47:23.449Z,63.60
2023-05-15T20:49:50.836Z,15.13
2023-05-15T20:52:18.108Z,7.27
2023-05-15T20:54:45.601Z,5.87
2023-05-15T20:57:14.237Z,5.60
2023-05-15T20:59:42.001Z,5.80
2023-05-15T21:02:09.429Z,6.37
2023-05-15T21:04:36.622Z,5.70
2023-05-15T21:07:03.984Z,6.03
2023-05-15T21:09:31.686Z,5.70
2023-05-15T21:11:59.689Z,5.53
2023-05-15T21:14:27.286Z,5.27
2023-05-15T21:16:54.810Z,5.60
2023-05-15T21:19:22.487Z,9.33
2023-05-15T21:21:49.663Z,5.27
2023-05-15T21:24:17.050Z,5.80
2023-05-15T21:26:44.281Z,5.27
2023-05-15T21:29:13.935Z,4.50
2023-05-15T21:31:42.575Z,5.43
2023-05-15T21:34:10.050Z,5.40
2023-05-15T21:36:37.730Z,5.07
2023-05-15T21:39:04.929Z,4.60
2023-05-15T21:41:32.682Z,5.87
2023-05-15T21:43:59.882Z,6.23
2023-05-15T21:46:27.189Z,5.40
2023-05-15T21:48:54.641Z,5.30
2023-05-15T21:51:22.190Z,5.27
2023-05-15T21:53:50.849Z,5.60
2023-05-15T21:56:18.085Z,5.57
2023-05-15T21:58:45.348Z,5.37
2023-05-15T22:01:14.178Z,4.93
2023-05-15T22:03:42.697Z,5.07
2023-05-15T22:06:09.956Z,5.27
2023-05-15T22:08:37.365Z,4.90
2023-05-15T22:11:05.101Z,5.73
2023-05-15T22:13:32.329Z,5.57
2023-05-15T22:15:59.892Z,4.90
2023-05-15T22:18:29.933Z,5.27
2023-05-15T22:20:57.424Z,5.27
2023-05-15T22:23:24.668Z,5.17
2023-05-15T22:25:54.312Z,6.60
2023-05-15T22:28:21.884Z,5.00
2023-05-15T22:30:49.291Z,5.37
2023-05-15T22:33:16.695Z,5.20
2023-05-15T22:35:44.636Z,5.00
2023-05-15T22:38:12.196Z,6.33
2023-05-15T22:40:39.683Z,5.10
2023-05-15T22:43:06.923Z,6.60
2023-05-15T22:45:34.840Z,5.33
2023-05-15T22:48:02.356Z,5.10
2023-05-15T22:50:29.766Z,4.90
2023-05-15T22:52:57.002Z,5.00
2023-05-15T22:55:24.427Z,5.43
2023-05-15T22:57:51.856Z,4.53
2023-05-15T23:00:19.502Z,5.80
2023-05-15T23:02:46.970Z,4.83
2023-05-15T23:05:14.509Z,5.13
2023-05-15T23:07:41.699Z,4.53
2023-05-15T23:10:09.307Z,6.03
2023-05-15T23:12:36.681Z,5.10
2023-05-15T23:15:04.871Z,5.20
2023-05-15T23:17:32.409Z,5.30
2023-05-15T23:19:59.753Z,5.70
2023-05-15T23:22:26.981Z,5.03
2023-05-15T23:24:54.166Z,5.77
2023-05-15T23:27:21.355Z,4.87
2023-05-15T23:29:48.666Z,5.10
2023-05-15T23:32:16.085Z,5.13
2023-05-15T23:34:43.612Z,5.60
2023-05-15T23:37:11.014Z,5.20
2023-05-15T23:39:38.190Z,5.30
2023-05-15T23:42:05.873Z,5.83
2023-05-15T23:44:33.065Z,5.53
2023-05-15T23:47:00.459Z,6.13
2023-05-15T23:49:27.791Z,6.07
2023-05-15T23:51:54.958Z,5.80
2023-05-15T23:54:22.110Z,5.80
2023-05-15T23:56:49.540Z,6.87
2023-05-15T23:59:17.047Z,7.97
